createdAt,value
2022-12-23T00:01:30.693Z,65.81
2022-12-23T00:04:01.857Z,65.91
2022-12-23T00:06:31.799Z,65.57
2022-12-23T00:09:02.803Z,65.72
2022-12-23T00:11:57.527Z,65.56
2022-12-23T00:14:40.040Z,66.15
2022-12-23T00:17:21.936Z,65.60
2022-12-23T00:19:52.813Z,65.61
2022-12-23T00:22:42.828Z,65.44
2022-12-23T00:25:13.776Z,65.38
2022-12-23T00:28:01.311Z,65.42
2022-12-23T00:30:31.548Z,65.54
2022-12-23T00:33:02.514Z,65.87
2022-12-23T00:35:34.080Z,65.87
2022-12-23T00:38:04.014Z,65.94
2022-12-23T00:40:49.352Z,65.85
2022-12-23T00:43:22.027Z,65.69
2022-12-23T00:45:52.038Z,65.59
2022-12-23T00:48:34.412Z,65.70
2022-12-23T00:51:04.506Z,66.30
2022-12-23T00:53:34.721Z,66.37
2022-12-23T00:56:04.700Z,66.51
2022-12-23T00:58:37.273Z,66.42
2022-12-23T01:01:19.801Z,66.34
2022-12-23T01:04:02.144Z,66.07
2022-12-23T01:06:37.642Z,65.85
2022-12-23T01:09:08.523Z,65.88
2022-12-23T01:11:38.723Z,65.65
2022-12-23T01:14:12.870Z,65.71
2022-12-23T01:16:43.309Z,65.68
2022-12-23T01:19:13.318Z,65.47
2022-12-23T01:21:44.256Z,65.40
2022-12-23T01:24:14.380Z,65.43
2022-12-23T01:26:44.419Z,65.44
2022-12-23T01:29:17.113Z,65.29
2022-12-23T01:31:47.094Z,65.95
2022-12-23T01:34:17.164Z,66.12
2022-12-23T01:36:47.155Z,65.94
2022-12-23T01:39:17.074Z,65.89
2022-12-23T01:41:59.448Z,65.78
2022-12-23T01:45:02.140Z,66.00
2022-12-23T01:47:41.705Z,66.16
2022-12-23T01:50:15.525Z,66.16
2022-12-23T01:52:48.769Z,66.12
2022-12-23T01:55:23.647Z,66.00
2022-12-23T01:58:01.375Z,65.91
2022-12-23T02:00:43.687Z,65.92
2022-12-23T02:03:28.690Z,65.86
2022-12-23T02:06:20.726Z,65.97
2022-12-23T02:09:03.137Z,65.62
2022-12-23T02:12:01.156Z,65.78
2022-12-23T02:14:55.742Z,65.51
2022-12-23T02:17:31.198Z,65.57
2022-12-23T02:20:33.273Z,65.49
2022-12-23T02:23:28.193Z,65.40
2022-12-23T02:26:14.450Z,65.51
2022-12-23T02:29:10.941Z,65.61
2022-12-23T02:31:56.845Z,65.52
2022-12-23T02:34:37.458Z,65.44
2022-12-23T02:37:13.392Z,65.63
2022-12-23T02:39:51.117Z,65.60
2022-12-23T02:42:25.701Z,65.53
2022-12-23T02:45:02.928Z,65.88
2022-12-23T02:47:43.451Z,65.85
2022-12-23T02:50:18.854Z,66.17
2022-12-23T02:52:52.591Z,65.77
2022-12-23T02:55:33.639Z,66.08
2022-12-23T02:58:07.858Z,66.13
2022-12-23T03:00:38.807Z,65.84
2022-12-23T03:03:11.835Z,65.73
2022-12-23T03:05:45.780Z,65.67
2022-12-23T03:08:19.874Z,66.01
2022-12-23T03:11:06.457Z,66.29
2022-12-23T03:13:51.907Z,66.15
2022-12-23T03:16:26.677Z,65.93
2022-12-23T03:19:12.195Z,66.00
2022-12-23T03:21:48.640Z,65.80
2022-12-23T03:24:27.343Z,66.16
2022-12-23T03:27:04.035Z,65.95
2022-12-23T03:29:42.006Z,66.27
2022-12-23T03:32:15.158Z,66.09
2022-12-23T03:34:51.260Z,66.09
2022-12-23T03:37:23.475Z,66.17
2022-12-23T03:39:59.607Z,66.22
2022-12-23T03:42:35.276Z,65.96
2022-12-23T03:45:37.664Z,66.34
2022-12-23T03:48:06.251Z,66.14
2022-12-23T03:50:41.569Z,66.30
2022-12-23T03:53:14.845Z,66.46
2022-12-23T03:55:52.135Z,66.42
2022-12-23T03:58:32.191Z,66.40
2022-12-23T04:01:07.564Z,66.27
2022-12-23T04:03:44.615Z,66.30
2022-12-23T04:06:20.371Z,66.57
2022-12-23T04:08:52.164Z,66.68
2022-12-23T04:11:22.615Z,66.44
2022-12-23T04:13:52.704Z,66.96
2022-12-23T04:16:22.951Z,66.90
2022-12-23T04:18:52.970Z,66.65
2022-12-23T04:21:25.551Z,66.74
2022-12-23T04:23:55.576Z,66.80
2022-12-23T04:26:25.584Z,66.53
2022-12-23T04:28:55.617Z,66.57
2022-12-23T04:31:25.665Z,66.68
2022-12-23T04:33:55.760Z,66.77
2022-12-23T04:36:28.413Z,66.85
2022-12-23T04:38:58.523Z,66.92
2022-12-23T04:41:28.491Z,66.66
2022-12-23T04:43:58.466Z,66.66
2022-12-23T04:46:28.534Z,66.67
2022-12-23T04:48:58.623Z,66.49
2022-12-23T04:51:31.245Z,66.50
2022-12-23T04:54:01.272Z,66.57
2022-12-23T04:56:31.223Z,66.53
2022-12-23T04:59:02.335Z,66.66
2022-12-23T05:01:32.605Z,66.57
2022-12-23T05:04:02.890Z,66.21
2022-12-23T05:06:35.536Z,66.39
2022-12-23T05:09:06.153Z,66.65
2022-12-23T05:11:41.941Z,66.42
2022-12-23T05:14:13.014Z,66.45
2022-12-23T05:16:43.107Z,66.37
2022-12-23T05:19:13.711Z,66.22
2022-12-23T05:22:06.569Z,66.31
2022-12-23T05:24:36.588Z,66.17
2022-12-23T05:27:06.872Z,66.25
2022-12-23T05:29:36.838Z,66.24
2022-12-23T05:32:07.307Z,66.27
2022-12-23T05:34:37.488Z,66.27
2022-12-23T05:37:10.066Z,66.08
2022-12-23T05:39:40.088Z,66.34
2022-12-23T05:42:10.001Z,66.36
2022-12-23T05:44:40.150Z,66.31
2022-12-23T05:47:10.108Z,66.34
2022-12-23T05:49:40.133Z,66.15
2022-12-23T05:52:30.990Z,66.31
2022-12-23T05:55:00.952Z,66.38
2022-12-23T05:57:32.010Z,66.17
2022-12-23T06:00:01.965Z,66.44
2022-12-23T06:02:42.627Z,66.30
2022-12-23T06:05:17.082Z,66.37
2022-12-23T06:07:49.615Z,66.52
2022-12-23T06:10:19.832Z,66.35
2022-12-23T06:12:49.801Z,66.27
2022-12-23T06:15:19.905Z,66.28
2022-12-23T06:17:49.988Z,66.51
2022-12-23T06:20:21.199Z,66.27
2022-12-23T06:22:54.019Z,66.30
2022-12-23T06:25:24.131Z,66.32
2022-12-23T06:27:54.271Z,66.13
2022-12-23T06:30:24.360Z,66.22
2022-12-23T06:32:54.594Z,66.19
2022-12-23T06:35:24.561Z,66.35
2022-12-23T06:37:58.298Z,66.28
2022-12-23T06:40:29.097Z,66.13
2022-12-23T06:42:59.350Z,66.12
2022-12-23T06:45:29.878Z,65.92
2022-12-23T06:47:59.987Z,65.87
2022-12-23T06:50:55.958Z,65.93
2022-12-23T06:53:28.540Z,65.94
2022-12-23T06:56:02.858Z,65.90
2022-12-23T06:58:33.014Z,65.90
2022-12-23T07:01:03.027Z,66.09
2022-12-23T07:03:33.162Z,65.92
2022-12-23T07:06:03.166Z,65.98
2022-12-23T07:08:35.828Z,66.17
2022-12-23T07:11:07.253Z,66.02
2022-12-23T07:13:37.499Z,66.00
2022-12-23T07:16:09.815Z,66.23
2022-12-23T07:18:39.879Z,66.06
2022-12-23T07:21:19.757Z,66.25
2022-12-23T07:23:54.096Z,66.38
2022-12-23T07:26:24.108Z,66.53
2022-12-23T07:28:54.124Z,66.76
2022-12-23T07:31:24.251Z,66.89
2022-12-23T07:33:54.507Z,67.05
2022-12-23T07:36:24.638Z,67.06
2022-12-23T07:38:58.236Z,67.33
2022-12-23T07:41:28.167Z,67.04
2022-12-23T07:44:07.167Z,67.16
2022-12-23T07:46:37.226Z,67.29
2022-12-23T07:49:07.261Z,67.34
2022-12-23T07:51:37.422Z,67.27
2022-12-23T07:54:09.988Z,67.52
2022-12-23T07:56:39.893Z,67.73
2022-12-23T07:59:09.910Z,68.02
2022-12-23T08:01:40.086Z,67.79
2022-12-23T08:04:10.187Z,67.69
2022-12-23T08:06:41.471Z,67.83
2022-12-23T08:09:14.767Z,68.09
2022-12-23T08:11:48.176Z,67.84
2022-12-23T08:14:18.193Z,68.04
2022-12-23T08:16:48.325Z,67.83
2022-12-23T08:19:18.486Z,68.09
2022-12-23T08:21:48.476Z,68.05
2022-12-23T08:24:21.122Z,68.07
2022-12-23T08:26:51.138Z,68.02
2022-12-23T08:29:21.249Z,67.82
2022-12-23T08:31:51.748Z,67.88
2022-12-23T08:34:22.107Z,67.88
2022-12-23T08:36:52.183Z,68.01
2022-12-23T08:39:24.727Z,67.94
2022-12-23T08:41:54.746Z,68.00
2022-12-23T08:44:27.077Z,68.14
2022-12-23T08:46:57.263Z,67.95
2022-12-23T08:49:27.518Z,67.90
2022-12-23T08:51:57.601Z,68.06
2022-12-23T08:54:30.175Z,67.91
2022-12-23T08:57:00.263Z,67.88
2022-12-23T08:59:30.250Z,67.97
2022-12-23T09:02:02.231Z,67.99
2022-12-23T09:04:32.607Z,67.87
2022-12-23T09:07:02.877Z,67.84
2022-12-23T09:09:36.452Z,67.80
2022-12-23T09:12:09.739Z,67.85
2022-12-23T09:14:42.755Z,67.74
2022-12-23T09:17:13.176Z,67.94
2022-12-23T09:19:48.582Z,67.85
2022-12-23T09:22:22.591Z,68.02
2022-12-23T09:25:01.275Z,67.81
2022-12-23T09:27:34.914Z,67.86
2022-12-23T09:30:05.459Z,67.84
2022-12-23T09:32:35.788Z,67.78
2022-12-23T09:35:06.120Z,67.71
2022-12-23T09:37:36.493Z,67.79
2022-12-23T09:40:10.880Z,67.81
2022-12-23T09:42:52.856Z,67.71
2022-12-23T09:45:41.542Z,67.76
2022-12-23T09:48:16.878Z,67.69
2022-12-23T09:50:47.610Z,67.60
2022-12-23T09:53:21.285Z,67.79
2022-12-23T09:56:03.049Z,67.77
2022-12-23T09:58:43.635Z,67.91
2022-12-23T10:01:21.817Z,67.67
2022-12-23T10:04:23.540Z,67.85
2022-12-23T10:07:03.057Z,67.91
2022-12-23T10:09:41.143Z,67.90
2022-12-23T10:12:27.238Z,68.12
2022-12-23T10:15:01.262Z,68.00
2022-12-23T10:17:41.952Z,67.96
2022-12-23T10:20:20.896Z,67.73
2022-12-23T10:22:50.933Z,68.06
2022-12-23T10:25:28.424Z,67.86
2022-12-23T10:28:01.113Z,67.70
2022-12-23T10:31:05.890Z,67.84
2022-12-23T10:33:39.249Z,67.89
2022-12-23T10:36:17.054Z,67.84
2022-12-23T10:38:57.342Z,68.07
2022-12-23T10:41:38.431Z,67.66
2022-12-23T10:44:27.811Z,67.89
2022-12-23T10:47:08.916Z,67.62
2022-12-23T10:49:51.029Z,67.55
2022-12-23T10:52:40.990Z,67.73
2022-12-23T10:55:24.304Z,67.77
2022-12-23T10:58:02.713Z,67.74
2022-12-23T11:00:35.370Z,67.76
2022-12-23T11:03:15.819Z,67.63
2022-12-23T11:05:47.389Z,67.59
2022-12-23T11:08:18.209Z,67.47
2022-12-23T11:10:48.944Z,67.61
2022-12-23T11:13:43.148Z,67.78
2022-12-23T11:16:26.456Z,67.53
2022-12-23T11:19:04.730Z,67.41
2022-12-23T11:21:36.315Z,67.41
2022-12-23T11:24:12.543Z,67.67
2022-12-23T11:26:42.740Z,67.52
2022-12-23T11:29:16.023Z,67.66
2022-12-23T11:31:48.918Z,67.45
2022-12-23T11:34:21.043Z,67.45
2022-12-23T11:37:03.356Z,67.31
2022-12-23T11:39:37.658Z,67.39
2022-12-23T11:42:14.734Z,67.55
2022-12-23T11:44:48.458Z,67.33
2022-12-23T11:47:41.106Z,67.82
2022-12-23T11:50:30.975Z,67.68
2022-12-23T11:53:13.843Z,67.44
2022-12-23T11:55:49.854Z,67.42
2022-12-23T11:58:24.340Z,67.31
2022-12-23T12:00:57.873Z,67.40
2022-12-23T12:03:34.657Z,67.36
2022-12-23T12:06:07.932Z,67.36
2022-12-23T12:08:40.491Z,67.28
2022-12-23T12:11:19.612Z,67.23
2022-12-23T12:13:52.986Z,67.29
2022-12-23T12:16:49.470Z,67.53
2022-12-23T12:19:27.429Z,67.25
2022-12-23T12:22:03.687Z,67.21
2022-12-23T12:24:40.688Z,67.24
2022-12-23T12:27:14.864Z,67.19
2022-12-23T12:29:49.941Z,67.16
2022-12-23T12:32:29.222Z,66.97
2022-12-23T12:35:05.828Z,67.04
2022-12-23T12:37:41.211Z,67.02
2022-12-23T12:40:20.993Z,67.11
2022-12-23T12:42:59.961Z,66.97
2022-12-23T12:45:39.863Z,66.95
2022-12-23T12:48:28.572Z,66.98
2022-12-23T12:51:07.058Z,66.87
2022-12-23T12:53:40.745Z,66.65
2022-12-23T12:56:19.047Z,66.76
2022-12-23T12:58:49.054Z,66.40
2022-12-23T13:01:36.438Z,66.48
2022-12-23T13:04:35.648Z,66.51
2022-12-23T13:07:19.879Z,65.66
2022-12-23T13:10:02.453Z,65.13
2022-12-23T13:12:45.805Z,64.20
2022-12-23T13:15:24.739Z,63.73
2022-12-23T13:18:10.665Z,63.11
2022-12-23T13:20:48.865Z,62.69
2022-12-23T13:26:35.806Z,63.25
2022-12-23T13:29:35.167Z,63.69
2022-12-23T13:32:17.676Z,63.68
2022-12-23T13:34:59.245Z,63.84
2022-12-23T13:37:39.026Z,63.75
2022-12-23T13:40:25.854Z,64.08
2022-12-23T13:43:00.384Z,64.11
2022-12-23T13:45:40.210Z,63.96
2022-12-23T13:48:29.698Z,64.02
2022-12-23T13:51:06.753Z,63.81
2022-12-23T13:53:51.186Z,64.10
2022-12-23T13:56:32.306Z,64.08
2022-12-23T13:59:02.912Z,64.77
2022-12-23T14:01:38.515Z,64.45
2022-12-23T14:04:34.501Z,64.16
2022-12-23T14:07:10.162Z,64.01
2022-12-23T14:09:41.775Z,63.91
2022-12-23T14:12:23.058Z,64.15
2022-12-23T14:15:15.256Z,64.25
2022-12-23T14:17:57.154Z,64.17
2022-12-23T14:20:44.196Z,64.20
2022-12-23T14:23:30.108Z,64.19
2022-12-23T14:26:24.097Z,64.20
2022-12-23T14:29:09.373Z,64.10
2022-12-23T14:31:43.165Z,63.98
2022-12-23T14:34:30.342Z,63.90
2022-12-23T14:37:18.944Z,63.90
2022-12-23T14:39:49.755Z,64.03
2022-12-23T14:42:36.999Z,64.08
2022-12-23T14:45:38.087Z,64.23
2022-12-23T14:49:15.991Z,63.86
2022-12-23T14:51:45.180Z,64.25
2022-12-23T14:54:18.162Z,64.50
2022-12-23T14:57:09.278Z,64.70
2022-12-23T14:59:51.431Z,64.90
2022-12-23T15:02:33.326Z,64.58
2022-12-23T15:05:04.109Z,64.47
2022-12-23T15:07:36.652Z,64.48
2022-12-23T15:10:09.387Z,64.58
2022-12-23T15:12:41.922Z,64.74
2022-12-23T15:15:17.975Z,64.43
2022-12-23T15:17:51.339Z,64.35
2022-12-23T15:20:28.220Z,64.66
2022-12-23T15:23:03.839Z,64.36
2022-12-23T15:25:36.407Z,64.46
2022-12-23T15:28:07.850Z,64.48
2022-12-23T15:30:48.949Z,64.33
2022-12-23T15:36:14.365Z,64.25
2022-12-23T15:38:44.814Z,64.31
2022-12-23T15:41:17.383Z,63.94
2022-12-23T15:43:48.036Z,64.38
2022-12-23T15:46:26.976Z,64.20
2022-12-23T15:49:02.150Z,64.09
2022-12-23T15:52:05.766Z,63.86
2022-12-23T15:54:29.888Z,63.86
2022-12-23T15:57:02.004Z,64.13
2022-12-23T15:59:36.111Z,64.20
2022-12-23T16:02:49.546Z,64.53
2022-12-23T16:05:08.001Z,64.30
2022-12-23T16:07:40.332Z,64.33
2022-12-23T16:10:18.163Z,64.31
2022-12-23T16:12:48.291Z,64.23
2022-12-23T16:15:29.833Z,64.39
2022-12-23T16:18:15.188Z,64.58
2022-12-23T16:20:50.106Z,64.35
2022-12-23T16:23:20.813Z,64.61
2022-12-23T16:25:52.320Z,64.47
2022-12-23T16:28:24.962Z,64.46
2022-12-23T16:30:57.384Z,64.27
2022-12-23T16:33:38.712Z,64.50
2022-12-23T16:36:23.618Z,64.63
2022-12-23T16:38:55.878Z,64.49
2022-12-23T16:41:25.843Z,64.34
2022-12-23T16:43:55.861Z,64.54
2022-12-23T16:46:26.017Z,64.72
2022-12-23T16:49:19.283Z,64.72
2022-12-23T16:51:52.360Z,64.87
2022-12-23T16:54:23.140Z,64.70
2022-12-23T16:56:53.228Z,64.73
2022-12-23T16:59:24.928Z,64.86
2022-12-23T17:02:02.932Z,65.10
2022-12-23T17:04:33.522Z,64.93
2022-12-23T17:07:12.083Z,65.09
2022-12-23T17:09:42.101Z,64.91
2022-12-23T17:12:13.007Z,64.91
2022-12-23T17:14:42.965Z,64.77
2022-12-23T17:17:18.270Z,64.80
2022-12-23T17:19:48.213Z,64.87
2022-12-23T17:22:21.873Z,64.78
2022-12-23T17:24:51.834Z,64.92
2022-12-23T17:27:22.921Z,64.62
2022-12-23T17:29:52.835Z,64.73
2022-12-23T17:32:23.068Z,64.72
2022-12-23T17:34:53.049Z,64.62
2022-12-23T17:37:25.723Z,64.65
2022-12-23T17:39:55.664Z,64.81
2022-12-23T17:42:26.413Z,64.46
2022-12-23T17:44:56.432Z,64.66
2022-12-23T17:47:26.454Z,64.49
2022-12-23T17:49:56.415Z,64.95
2022-12-23T17:52:29.004Z,64.93
2022-12-23T17:54:58.895Z,64.87
2022-12-23T17:57:30.540Z,64.79
2022-12-23T18:00:00.467Z,64.89
2022-12-23T18:02:33.165Z,64.74
2022-12-23T18:05:03.476Z,64.85
2022-12-23T18:07:36.049Z,64.87
2022-12-23T18:10:06.381Z,64.94
2022-12-23T18:12:38.925Z,64.65
2022-12-23T18:15:17.193Z,64.82
2022-12-23T18:17:47.124Z,64.70
2022-12-23T18:20:19.152Z,64.75
2022-12-23T18:22:59.319Z,64.70
2022-12-23T18:25:30.123Z,64.67
2022-12-23T18:28:00.475Z,64.66
2022-12-23T18:30:30.506Z,64.59
2022-12-23T18:33:00.908Z,64.74
2022-12-23T18:35:34.134Z,64.69
2022-12-23T18:38:06.821Z,64.67
2022-12-23T18:40:36.720Z,64.63
2022-12-23T18:43:06.711Z,64.82
2022-12-23T18:45:41.816Z,64.82
2022-12-23T18:48:12.814Z,64.72
2022-12-23T18:50:44.390Z,64.77
2022-12-23T18:53:23.783Z,64.93
2022-12-23T18:55:55.356Z,64.91
2022-12-23T18:58:27.039Z,64.87
2022-12-23T19:00:57.246Z,64.64
2022-12-23T19:03:29.886Z,64.91
2022-12-23T19:06:19.026Z,64.87
2022-12-23T19:08:51.806Z,64.58
2022-12-23T19:11:23.710Z,64.90
2022-12-23T19:13:53.668Z,64.82
2022-12-23T19:16:27.139Z,64.57
2022-12-23T19:18:57.408Z,64.79
2022-12-23T19:21:28.447Z,64.81
2022-12-23T19:24:03.015Z,64.79
2022-12-23T19:26:32.969Z,64.59
2022-12-23T19:29:03.208Z,64.60
2022-12-23T19:31:34.078Z,64.82
2022-12-23T19:34:06.091Z,64.70
2022-12-23T19:36:39.903Z,64.63
2022-12-23T19:39:16.984Z,64.83
2022-12-23T19:41:53.554Z,64.93
2022-12-23T19:44:23.463Z,64.83
2022-12-23T19:46:53.618Z,65.02
2022-12-23T19:49:23.659Z,65.09
2022-12-23T19:51:53.759Z,64.84
2022-12-23T19:54:26.288Z,64.78
2022-12-23T19:56:56.289Z,65.00
2022-12-23T19:59:26.365Z,64.97
2022-12-23T20:01:56.875Z,65.10
2022-12-23T20:04:26.856Z,65.04
2022-12-23T20:06:56.821Z,65.30
2022-12-23T20:09:34.651Z,65.12
2022-12-23T20:12:04.607Z,65.17
2022-12-23T20:14:34.999Z,65.15
2022-12-23T20:17:05.115Z,65.35
2022-12-23T20:19:43.881Z,65.14
2022-12-23T20:22:15.922Z,64.99
2022-12-23T20:24:48.654Z,65.29
2022-12-23T20:27:24.216Z,65.04
2022-12-23T20:29:57.692Z,65.19
2022-12-23T20:32:27.609Z,64.95
2022-12-23T20:34:57.556Z,65.00
2022-12-23T20:37:27.586Z,65.19
2022-12-23T20:40:00.140Z,65.13
2022-12-23T20:42:30.089Z,65.19
2022-12-23T20:45:17.958Z,65.13
2022-12-23T20:47:47.872Z,65.43
2022-12-23T20:50:18.963Z,65.09
2022-12-23T20:52:49.109Z,65.28
2022-12-23T20:55:21.709Z,65.37
2022-12-23T20:57:51.698Z,65.28
2022-12-23T21:00:22.071Z,65.21
2022-12-23T21:02:52.055Z,65.12
2022-12-23T21:05:21.989Z,64.96
2022-12-23T21:07:51.895Z,64.68
2022-12-23T21:10:24.463Z,64.93
2022-12-23T21:12:54.495Z,64.88
2022-12-23T21:15:24.472Z,65.01
2022-12-23T21:17:54.479Z,64.86
2022-12-23T21:20:24.819Z,64.86
2022-12-23T21:22:54.767Z,64.78
2022-12-23T21:25:27.297Z,64.94
2022-12-23T21:27:57.292Z,64.74
2022-12-23T21:30:27.221Z,64.67
2022-12-23T21:33:02.486Z,64.58
2022-12-23T21:35:32.525Z,64.31
2022-12-23T21:38:02.496Z,64.53
2022-12-23T21:40:35.019Z,64.46
2022-12-23T21:43:08.720Z,64.39
2022-12-23T21:45:38.989Z,64.51
2022-12-23T21:48:08.953Z,64.50
2022-12-23T21:50:39.031Z,64.37
2022-12-23T21:53:09.115Z,64.45
2022-12-23T21:55:42.798Z,64.33
2022-12-23T21:58:12.855Z,64.40
2022-12-23T22:00:42.884Z,64.57
2022-12-23T22:03:12.882Z,64.47
2022-12-23T22:05:43.858Z,64.50
2022-12-23T22:08:13.768Z,64.53
2022-12-23T22:10:48.046Z,64.57
2022-12-23T22:13:18.082Z,64.66
2022-12-23T22:15:48.056Z,64.58
2022-12-23T22:18:18.009Z,64.39
2022-12-23T22:20:48.271Z,64.50
2022-12-23T22:23:18.292Z,64.25
2022-12-23T22:25:57.417Z,64.40
2022-12-23T22:28:27.369Z,64.32
2022-12-23T22:31:04.057Z,64.72
2022-12-23T22:33:34.894Z,64.52
2022-12-23T22:36:05.144Z,64.40
2022-12-23T22:38:35.097Z,64.65
2022-12-23T22:41:08.062Z,64.48
2022-12-23T22:43:38.018Z,64.55
2022-12-23T22:46:08.455Z,64.58
2022-12-23T22:48:38.731Z,64.70
2022-12-23T22:51:10.482Z,64.70
2022-12-23T22:53:40.480Z,64.51
2022-12-23T22:56:14.677Z,64.53
2022-12-23T22:58:45.420Z,64.82
2022-12-23T23:01:24.226Z,64.61
2022-12-23T23:03:57.416Z,64.54
2022-12-23T23:06:28.502Z,64.25
2022-12-23T23:08:59.463Z,64.48
2022-12-23T23:11:32.568Z,64.12
2022-12-23T23:14:02.539Z,64.28
2022-12-23T23:16:33.208Z,63.82
2022-12-23T23:19:03.970Z,63.94
2022-12-23T23:21:34.399Z,63.81
2022-12-23T23:24:04.368Z,64.02
2022-12-23T23:26:40.691Z,63.86
2022-12-23T23:29:10.654Z,63.75
2022-12-23T23:31:42.885Z,63.77
2022-12-23T23:34:13.795Z,63.77
2022-12-23T23:36:44.329Z,63.65
2022-12-23T23:39:15.532Z,63.82
2022-12-23T23:41:48.453Z,63.66
2022-12-23T23:44:18.574Z,63.64
2022-12-23T23:46:59.010Z,63.46
2022-12-23T23:49:29.091Z,63.53
2022-12-23T23:51:59.071Z,63.56
2022-12-23T23:54:29.139Z,63.52
2022-12-23T23:57:01.730Z,63.86
2022-12-23T23:59:32.030Z,63.78
